Terminal Aerodrome Forecast
Issued by NWS

Home | Current Version | Previous Version | Text Only | Print | Product List | Glossary On
Versions: 1 2 3 4 5 6 7 8 9 10 11 12 13 14 15
000
FTUS41 KPHI 212300 RRA
TAFMIV
TAF
KMIV 212342Z 2200/2224 35004KT P6SM BKN250
     FM221200 04004KT P6SM BKN250
     FM221400 07005KT P6SM OVC100
     FM221600 07005KT P6SM BKN040
      TEMPO 2216/2220 5SM -RASN
     FM222000 08004KT 5SM -RA BR BKN020=

USA.gov is the U.S. government's official web portal to all federal, state and local government web resources and services.